Time;durP1;ratioP1;P1;durP2;ratioP2;P2;SDS_P1;SDS_P2;PMS_P1;PMS_P2;Temp;Humidity;BMP_temperature;BMP_pressure;BME280_temperature;BME280_humidity;BME280_pressure;Samples;Min_cycle;Max_cycle;Signal;HPM_P1;HPM_P2
2022/10/08 00:00:05;;;;;;;9.03;3.30;;;12.80;1.00;;;;;;5072685;28;20426;-72
2022/10/08 00:02:31;;;;;;;3.67;2.90;;;12.80;1.00;;;;;;5072899;28;20420;-73
2022/10/08 00:04:57;;;;;;;8.50;3.50;;;12.80;1.00;;;;;;5070717;28;20826;-69
2022/10/08 00:07:23;;;;;;;4.43;2.90;;;12.80;1.00;;;;;;5072479;28;20239;-73
2022/10/08 00:09:49;;;;;;;7.70;3.03;;;12.80;1.00;;;;;;5072505;28;20413;-68
2022/10/08 00:12:15;;;;;;;3.83;2.70;;;12.80;1.00;;;;;;5072934;28;20368;-69
2022/10/08 00:14:40;;;;;;;7.27;3.20;;;12.80;1.00;;;;;;5073199;28;20475;-74
2022/10/08 00:17:06;;;;;;;5.37;2.97;;;12.80;1.00;;;;;;5076682;28;20163;-72
2022/10/08 00:19:32;;;;;;;13.17;3.30;;;12.80;1.00;;;;;;5076376;28;20217;-75
2022/10/08 00:21:57;;;;;;;7.73;2.70;;;12.80;1.00;;;;;;5076667;28;20256;-72
2022/10/08 00:24:23;;;;;;;13.77;3.57;;;12.80;1.00;;;;;;5074365;28;20768;-70
2022/10/08 00:26:50;;;;;;;6.13;3.43;;;12.70;1.00;;;;;;5071060;28;20551;-72
2022/10/08 00:29:19;;;;;;;11.70;3.40;;;12.80;1.00;;;;;;5087752;28;20166;-69
2022/10/08 00:31:47;;;;;;;5.93;2.87;;;12.80;1.00;;;;;;5076246;28;20371;-72
2022/10/08 00:34:18;;;;;;;3.90;2.77;;;12.80;1.00;;;;;;5075198;28;20395;-74
2022/10/08 00:36:44;;;;;;;9.10;3.20;;;12.80;1.00;;;;;;5075996;28;20415;-70
2022/10/08 00:39:14;;;;;;;7.93;2.90;;;12.80;1.00;;;;;;5076217;28;20739;-74
2022/10/08 00:41:42;;;;;;;5.37;2.93;;;12.80;1.00;;;;;;5076272;28;20420;-73
2022/10/08 00:44:42;;;;;;;6.17;3.60;;;12.80;1.00;;;;;;5074631;28;20911;-75
2022/10/08 00:47:30;;;;;;;10.83;3.20;;;12.80;1.00;;;;;;5076154;28;20382;-70
2022/10/08 00:50:15;;;;;;;8.30;2.97;;;12.80;1.00;;;;;;5075818;28;20920;-70
2022/10/08 00:52:57;;;;;;;9.57;2.70;;;12.80;1.00;;;;;;5076158;28;20454;-72
2022/10/08 00:55:26;;;;;;;8.17;3.57;;;12.80;1.00;;;;;;5055001;28;20896;-71
2022/10/08 00:57:54;;;;;;;9.03;5.10;;;12.90;1.00;;;;;;5060191;28;20490;-72
2022/10/08 01:00:22;;;;;;;14.70;3.10;;;12.90;1.00;;;;;;5075473;28;20379;-70
2022/10/08 01:02:48;;;;;;;8.87;3.07;;;13.00;1.00;;;;;;5075429;28;20402;-70
2022/10/08 01:05:18;;;;;;;7.60;2.90;;;13.00;1.00;;;;;;5074879;28;20525;-74
2022/10/08 01:07:52;;;;;;;11.00;3.77;;;13.10;1.00;;;;;;5075578;28;20158;-73
2022/10/08 01:10:27;;;;;;;4.93;3.37;;;13.10;1.00;;;;;;5075520;28;20374;-70
2022/10/08 01:13:17;;;;;;;7.37;2.93;;;13.20;1.00;;;;;;5075121;28;20394;-67
2022/10/08 01:15:48;;;;;;;9.00;2.83;;;13.20;1.00;;;;;;5073314;28;20409;-68
2022/10/08 01:18:25;;;;;;;8.67;2.53;;;13.30;1.00;;;;;;5074767;28;20391;-73
2022/10/08 01:21:01;;;;;;;8.80;3.30;;;13.30;1.00;;;;;;5075566;28;20383;-71
2022/10/08 01:23:53;;;;;;;4.87;2.70;;;13.20;1.00;;;;;;5075178;28;20386;-72
2022/10/08 01:26:36;;;;;;;5.00;2.50;;;13.10;1.00;;;;;;5074473;28;20522;-70
2022/10/08 01:29:14;;;;;;;5.53;3.37;;;13.10;1.00;;;;;;5075087;28;20931;-70
2022/10/08 01:32:12;;;;;;;6.13;2.50;;;13.00;1.00;;;;;;5074297;28;20371;-74
2022/10/08 01:34:59;;;;;;;7.27;2.83;;;13.00;1.00;;;;;;5073908;28;20791;-73
2022/10/08 01:37:30;;;;;;;8.70;3.33;;;13.00;1.00;;;;;;5073312;28;20396;-72
2022/10/08 01:39:59;;;;;;;8.73;3.03;;;13.00;1.00;;;;;;5065410;28;20405;-71
2022/10/08 01:42:26;;;;;;;6.30;2.87;;;12.90;1.00;;;;;;5075113;28;20375;-73
2022/10/08 01:45:00;;;;;;;5.97;3.60;;;12.90;1.00;;;;;;5073814;28;20431;-73
2022/10/08 01:47:27;;;;;;;7.33;3.30;;;12.90;1.00;;;;;;5073621;28;20472;-71
2022/10/08 01:50:11;;;;;;;4.80;2.80;;;12.80;1.00;;;;;;5074720;28;20903;-73
2022/10/08 01:52:41;;;;;;;7.30;2.87;;;12.70;1.00;;;;;;5074625;28;20367;-74
2022/10/08 01:55:17;;;;;;;9.83;3.93;;;12.70;1.00;;;;;;5053964;28;20927;-71
2022/10/08 01:57:44;;;;;;;3.77;2.63;;;12.70;1.00;;;;;;5054766;28;20397;-71
2022/10/08 02:00:12;;;;;;;6.23;2.87;;;12.70;1.00;;;;;;5074754;28;20763;-70
2022/10/08 02:02:39;;;;;;;15.90;3.90;;;12.80;1.00;;;;;;5073494;28;20411;-72
2022/10/08 02:05:05;;;;;;;4.93;2.33;;;12.80;1.00;;;;;;5073291;28;20449;-68
2022/10/08 02:07:36;;;;;;;5.43;3.10;;;12.80;1.00;;;;;;5074746;28;20466;-71
2022/10/08 02:10:07;;;;;;;11.23;3.43;;;12.80;1.00;;;;;;5074322;28;20421;-69
2022/10/08 02:12:35;;;;;;;7.37;3.40;;;12.90;1.00;;;;;;5073798;28;20422;-71
2022/10/08 02:15:03;;;;;;;6.83;2.77;;;12.90;1.00;;;;;;5073004;28;20472;-70
2022/10/08 02:17:49;;;;;;;9.63;3.30;;;12.90;1.00;;;;;;5074111;28;20382;-69
2022/10/08 02:20:27;;;;;;;13.90;3.20;;;12.90;1.00;;;;;;5054573;28;20463;-71
2022/10/08 02:23:10;;;;;;;3.80;2.73;;;12.90;1.00;;;;;;5057051;28;20447;-71
2022/10/08 02:25:45;;;;;;;7.80;3.60;;;13.00;1.00;;;;;;5073236;28;20446;-71
2022/10/08 02:28:16;;;;;;;7.90;2.60;;;13.00;1.00;;;;;;5074031;28;20395;-69
2022/10/08 02:30:59;;;;;;;7.30;3.23;;;13.00;1.00;;;;;;5073644;28;20401;-71
2022/10/08 02:33:31;;;;;;;7.50;4.07;;;13.00;1.00;;;;;;5073631;28;20387;-69
2022/10/08 02:35:59;;;;;;;9.80;3.27;;;12.90;1.00;;;;;;5073338;28;20440;-71
2022/10/08 02:38:42;;;;;;;10.23;3.53;;;12.90;1.00;;;;;;5073786;28;20744;-68
2022/10/08 02:41:10;;;;;;;6.27;2.97;;;12.90;1.00;;;;;;5073812;28;20885;-73
2022/10/08 02:43:40;;;;;;;9.80;3.13;;;12.90;1.00;;;;;;5072385;28;20398;-75
2022/10/08 02:46:15;;;;;;;7.87;3.60;;;12.90;1.00;;;;;;5073773;28;20456;-69
2022/10/08 02:48:46;;;;;;;5.17;3.03;;;13.00;1.00;;;;;;5072907;28;20806;-72
2022/10/08 02:51:14;;;;;;;8.13;3.67;;;13.10;1.00;;;;;;5073654;28;20411;-72
2022/10/08 02:53:41;;;;;;;5.73;2.80;;;13.00;1.00;;;;;;5071650;28;20401;-74
2022/10/08 02:56:19;;;;;;;10.20;2.87;;;13.00;1.00;;;;;;5073434;28;20457;-73
2022/10/08 02:58:45;;;;;;;9.63;3.80;;;12.90;1.00;;;;;;5073517;28;20408;-71
2022/10/08 03:01:38;;;;;;;6.40;4.00;;;12.80;1.00;;;;;;5073272;28;20440;-72
2022/10/08 03:04:23;;;;;;;12.73;3.77;;;12.80;1.00;;;;;;5072398;28;20432;-72
2022/10/08 03:06:51;;;;;;;9.50;3.40;;;12.70;1.00;;;;;;5073021;28;20858;-73
2022/10/08 03:09:19;;;;;;;5.10;3.03;;;12.70;1.00;;;;;;5072186;28;20429;-72
2022/10/08 03:11:45;;;;;;;6.13;3.50;;;12.60;1.00;;;;;;5073245;28;20391;-72
2022/10/08 03:14:14;;;;;;;15.83;4.17;;;12.60;1.00;;;;;;5072640;28;20382;-71
2022/10/08 03:16:45;;;;;;;4.30;3.20;;;12.60;1.00;;;;;;5073211;28;20903;-72
2022/10/08 03:19:13;;;;;;;8.93;3.50;;;12.50;1.00;;;;;;5073376;28;20411;-74
2022/10/08 03:21:42;;;;;;;6.80;3.80;;;12.50;1.00;;;;;;5072612;28;20449;-72
2022/10/08 03:24:09;;;;;;;14.60;4.40;;;12.50;14.00;;;;;;5072496;28;20401;-72
2022/10/08 03:26:36;;;;;;;3.80;3.43;;;12.30;22.60;;;;;;5072991;28;21021;-71
2022/10/08 03:29:02;;;;;;;8.40;4.30;;;12.30;41.30;;;;;;5073354;28;20390;-72
2022/10/08 03:31:27;;;;;;;9.30;4.17;;;12.20;57.10;;;;;;5072662;28;20537;-72
2022/10/08 03:33:54;;;;;;;13.33;4.07;;;12.30;86.10;;;;;;5072327;28;20641;-72
2022/10/08 03:36:21;;;;;;;4.47;2.90;;;12.30;83.60;;;;;;5072996;28;20202;-72
2022/10/08 03:38:48;;;;;;;5.83;3.70;;;12.30;92.90;;;;;;5072852;28;20752;-72
2022/10/08 03:41:14;;;;;;;9.57;4.43;;;12.30;93.90;;;;;;5072825;28;20896;-73
2022/10/08 03:43:40;;;;;;;5.70;3.73;;;12.20;93.40;;;;;;5072311;28;20411;-74
2022/10/08 03:46:06;;;;;;;3.90;3.40;;;12.20;92.90;;;;;;5072540;28;20855;-71
2022/10/08 03:48:32;;;;;;;6.40;4.67;;;12.20;94.00;;;;;;5073151;28;20618;-72
2022/10/08 03:51:00;;;;;;;4.30;3.77;;;12.30;95.40;;;;;;5076672;28;20424;-75
2022/10/08 03:53:30;;;;;;;16.00;4.53;;;12.30;99.90;;;;;;5076961;28;20407;-75
2022/10/08 03:56:00;;;;;;;7.40;4.60;;;12.30;99.90;;;;;;5075267;28;20505;-72
2022/10/08 03:58:26;;;;;;;7.90;3.60;;;12.30;99.90;;;;;;5077053;28;20391;-73
2022/10/08 04:00:59;;;;;;;10.97;5.00;;;12.30;99.90;;;;;;5076748;28;20478;-73
2022/10/08 04:03:26;;;;;;;5.03;4.07;;;12.30;99.90;;;;;;5076706;28;20190;-78
2022/10/08 04:05:52;;;;;;;6.87;3.60;;;12.30;99.90;;;;;;5075845;28;20449;-72
2022/10/08 04:08:17;;;;;;;5.60;3.87;;;12.30;99.90;;;;;;5076716;28;20387;-72
2022/10/08 04:10:43;;;;;;;4.13;3.70;;;12.20;99.90;;;;;;5076656;28;20233;-73
2022/10/08 04:13:09;;;;;;;8.53;4.37;;;12.20;99.90;;;;;;5076518;28;20170;-73
2022/10/08 04:15:34;;;;;;;8.10;3.10;;;12.20;99.90;;;;;;5075465;28;20554;-73
2022/10/08 04:18:00;;;;;;;13.33;3.93;;;12.20;99.90;;;;;;5076366;28;20190;-72
2022/10/08 04:20:26;;;;;;;4.17;3.33;;;12.10;99.90;;;;;;5076628;28;20201;-74
2022/10/08 04:22:51;;;;;;;4.80;3.43;;;12.10;99.90;;;;;;5076618;28;20686;-74
2022/10/08 04:25:17;;;;;;;10.53;4.47;;;12.10;99.90;;;;;;5075745;28;20675;-74
2022/10/08 04:27:43;;;;;;;8.30;4.20;;;12.10;99.90;;;;;;5076138;28;20626;-71
2022/10/08 04:30:09;;;;;;;12.50;4.90;;;12.10;99.90;;;;;;5076111;28;20261;-74
2022/10/08 04:32:34;;;;;;;3.90;3.17;;;12.10;99.90;;;;;;5076230;28;20174;-77
2022/10/08 04:35:00;;;;;;;4.00;3.50;;;12.10;99.90;;;;;;5074098;28;20418;-73
2022/10/08 04:37:26;;;;;;;7.80;4.10;;;12.00;99.90;;;;;;5076098;28;20201;-74
2022/10/08 04:39:51;;;;;;;14.23;4.93;;;12.00;99.90;;;;;;5076380;28;20523;-76
2022/10/08 04:42:17;;;;;;;5.00;4.40;;;11.90;99.90;;;;;;5076024;28;20186;-77
2022/10/08 04:44:42;;;;;;;5.13;4.60;;;11.90;99.90;;;;;;5075180;28;20189;-76
2022/10/08 04:47:08;;;;;;;10.90;5.80;;;11.80;99.90;;;;;;5075554;28;20693;-72
2022/10/08 04:49:34;;;;;;;6.53;4.20;;;11.80;99.90;;;;;;5076138;28;20162;-71
2022/10/08 04:51:59;;;;;;;5.87;4.90;;;11.90;99.90;;;;;;5075787;28;20171;-75
2022/10/08 04:54:25;;;;;;;13.00;5.03;;;11.90;99.90;;;;;;5075055;28;20162;-75
2022/10/08 04:56:51;;;;;;;7.67;5.87;;;11.90;99.90;;;;;;5075712;28;20734;-74
2022/10/08 04:59:16;;;;;;;10.43;5.10;;;11.90;99.90;;;;;;5075953;28;20206;-73
2022/10/08 05:01:42;;;;;;;7.57;4.57;;;11.90;99.90;;;;;;5074105;28;20182;-72
2022/10/08 05:04:07;;;;;;;9.97;4.83;;;11.90;99.90;;;;;;5074689;28;20197;-72
2022/10/08 05:06:33;;;;;;;11.37;5.53;;;11.90;99.90;;;;;;5074854;28;20209;-71
2022/10/08 05:09:02;;;;;;;8.83;4.77;;;12.00;99.90;;;;;;5075968;28;20196;-76
2022/10/08 05:11:27;;;;;;;11.30;5.30;;;11.90;99.90;;;;;;5075436;28;20174;-71
2022/10/08 05:13:55;;;;;;;11.33;5.60;;;12.00;99.90;;;;;;5074698;28;20382;-74
2022/10/08 05:16:21;;;;;;;11.90;5.20;;;12.00;99.90;;;;;;5075232;28;20502;-73
2022/10/08 05:18:49;;;;;;;5.77;4.00;;;11.90;99.90;;;;;;5075713;28;20862;-77
2022/10/08 05:21:20;;;;;;;7.93;4.43;;;12.00;99.90;;;;;;5075346;28;20435;-70
2022/10/08 05:23:46;;;;;;;8.40;4.83;;;12.00;99.90;;;;;;5074280;28;20404;-77
2022/10/08 05:26:25;;;;;;;8.13;3.80;;;11.90;99.90;;;;;;5074792;28;20472;-78
2022/10/08 05:28:57;;;;;;;10.83;4.87;;;12.00;99.90;;;;;;5075395;28;20166;-69
2022/10/08 05:31:24;;;;;;;9.13;5.03;;;11.90;99.90;;;;;;5075126;28;20406;-69
2022/10/08 05:33:51;;;;;;;7.70;4.90;;;12.00;99.90;;;;;;5074514;28;20415;-79
2022/10/08 05:36:25;;;;;;;10.23;4.50;;;12.00;99.90;;;;;;5075090;28;20395;-70
2022/10/08 05:38:51;;;;;;;6.20;4.33;;;11.90;99.90;;;;;;5075274;28;20404;-69
2022/10/08 05:41:23;;;;;;;6.47;5.03;;;12.00;99.90;;;;;;5074752;28;20367;-80
2022/10/08 05:43:49;;;;;;;9.20;5.13;;;12.00;99.90;;;;;;5074504;28;20390;-68
2022/10/08 05:46:16;;;;;;;12.10;6.07;;;11.90;99.90;;;;;;5074991;28;20431;-82
2022/10/08 05:48:42;;;;;;;11.87;5.40;;;11.90;99.90;;;;;;5075041;28;20407;-72
2022/10/08 05:51:14;;;;;;;10.70;5.20;;;11.90;99.90;;;;;;5075113;28;20375;-80
2022/10/08 05:53:43;;;;;;;10.20;5.90;;;11.90;99.90;;;;;;5073989;28;20380;-79
2022/10/08 05:56:10;;;;;;;7.53;5.67;;;11.90;99.90;;;;;;5074853;28;20390;-79
2022/10/08 05:58:38;;;;;;;9.13;5.83;;;12.00;99.90;;;;;;5074199;28;20398;-73
2022/10/08 06:01:15;;;;;;;10.60;5.40;;;12.00;99.90;;;;;;5074909;28;20924;-73
2022/10/08 06:03:41;;;;;;;10.13;6.63;;;12.10;99.90;;;;;;5073926;28;20496;-71
2022/10/08 06:06:09;;;;;;;11.10;7.07;;;12.10;99.90;;;;;;5074544;28;20448;-67
2022/10/08 06:08:36;;;;;;;7.60;5.90;;;12.20;99.90;;;;;;5074542;28;20488;-67
2022/10/08 06:11:03;;;;;;;9.87;6.33;;;12.10;99.90;;;;;;5074452;28;20393;-78
2022/10/08 06:13:29;;;;;;;22.30;7.13;;;12.20;99.90;;;;;;5073683;28;20389;-78
2022/10/08 06:16:02;;;;;;;9.23;6.90;;;12.20;99.90;;;;;;5072913;28;20957;-78
2022/10/08 06:18:32;;;;;;;10.60;6.70;;;12.20;99.90;;;;;;5074387;28;20418;-68
2022/10/08 06:21:05;;;;;;;14.23;6.80;;;12.20;99.90;;;;;;5074267;28;20921;-67
2022/10/08 06:23:31;;;;;;;6.63;6.00;;;12.30;99.90;;;;;;5074084;28;20384;-79
2022/10/08 06:26:07;;;;;;;9.67;6.63;;;12.30;99.90;;;;;;5073676;28;20445;-77
2022/10/08 06:28:35;;;;;;;10.37;7.00;;;12.30;99.90;;;;;;5072879;28;20265;-78
2022/10/08 06:31:01;;;;;;;12.70;7.10;;;12.30;99.90;;;;;;5074006;28;20800;-67
2022/10/08 06:33:27;;;;;;;10.17;6.87;;;12.30;99.90;;;;;;5073640;28;20522;-77
2022/10/08 06:35:53;;;;;;;9.40;6.53;;;12.20;99.90;;;;;;5072454;28;20475;-77
2022/10/08 06:38:19;;;;;;;9.40;7.43;;;12.30;99.90;;;;;;5074110;28;20731;-77
2022/10/08 06:40:45;;;;;;;13.13;8.47;;;12.30;99.90;;;;;;5074101;28;20379;-67
2022/10/08 06:43:14;;;;;;;8.57;6.17;;;12.30;99.90;;;;;;5073989;28;20744;-67
2022/10/08 06:45:41;;;;;;;9.43;7.70;;;12.30;99.90;;;;;;5073017;28;20233;-68
2022/10/08 06:48:08;;;;;;;11.00;6.63;;;12.30;99.90;;;;;;5074059;28;20392;-77
2022/10/08 06:50:34;;;;;;;8.60;6.60;;;12.40;99.90;;;;;;5073461;28;20383;-67
2022/10/08 06:53:00;;;;;;;8.93;6.40;;;12.30;99.90;;;;;;5073760;28;20397;-77
2022/10/08 06:55:25;;;;;;;10.53;6.57;;;12.30;99.90;;;;;;5073001;28;20953;-77
2022/10/08 06:57:51;;;;;;;10.27;6.20;;;12.40;99.90;;;;;;5073853;28;20229;-77
2022/10/08 07:00:17;;;;;;;14.47;9.53;;;12.40;99.90;;;;;;5073694;28;20177;-68
2022/10/08 07:02:43;;;;;;;8.40;7.20;;;12.50;99.90;;;;;;5073565;28;20541;-77
2022/10/08 07:05:09;;;;;;;10.20;7.10;;;12.60;99.90;;;;;;5072801;28;20193;-77
2022/10/08 07:07:35;;;;;;;13.13;7.10;;;12.70;99.90;;;;;;5073209;28;20406;-78
2022/10/08 07:10:02;;;;;;;9.80;6.93;;;12.80;99.90;;;;;;5073713;28;20368;-78
2022/10/08 07:12:28;;;;;;;8.47;6.50;;;12.80;99.90;;;;;;5073562;28;20927;-78
2022/10/08 07:14:54;;;;;;;10.53;7.07;;;12.90;99.90;;;;;;5072742;28;20378;-72
2022/10/08 07:17:19;;;;;;;18.83;6.70;;;12.90;99.90;;;;;;5073359;28;20366;-78
2022/10/08 07:19:45;;;;;;;8.13;6.50;;;13.00;99.90;;;;;;5073713;28;20694;-69
2022/10/08 07:22:11;;;;;;;7.27;5.30;;;13.10;99.90;;;;;;5072165;28;20166;-78
2022/10/08 07:24:36;;;;;;;6.50;5.87;;;13.10;99.90;;;;;;5072143;28;20174;-69
2022/10/08 07:27:02;;;;;;;8.00;4.23;;;13.10;99.90;;;;;;5072740;28;20674;-69
2022/10/08 07:29:28;;;;;;;8.77;4.67;;;13.00;99.90;;;;;;5073168;28;20245;-78
2022/10/08 07:31:53;;;;;;;4.20;3.80;;;12.90;99.90;;;;;;5073266;28;20674;-78
2022/10/08 07:34:19;;;;;;;3.97;3.67;;;12.80;99.90;;;;;;5072734;28;20170;-70
2022/10/08 07:36:45;;;;;;;4.23;3.07;;;12.70;99.90;;;;;;5089190;28;20186;-69
2022/10/08 07:39:17;;;;;;;7.47;2.97;;;12.60;99.90;;;;;;5073445;28;20569;-79
2022/10/08 07:41:43;;;;;;;4.17;3.10;;;12.60;99.90;;;;;;5073231;28;20522;-74
2022/10/08 07:44:10;;;;;;;4.00;2.20;;;12.50;99.90;;;;;;5071191;28;20728;-78
2022/10/08 07:46:40;;;;;;;6.13;2.80;;;12.60;99.90;;;;;;5073251;28;20427;-78
2022/10/08 07:49:06;;;;;;;6.27;3.23;;;12.70;99.90;;;;;;5072185;28;20383;-70
2022/10/08 07:51:33;;;;;;;3.70;2.70;;;13.00;99.90;;;;;;5072976;28;20542;-70
2022/10/08 07:53:59;;;;;;;7.40;2.30;;;13.30;99.90;;;;;;5072676;28;20169;-76
2022/10/08 07:56:25;;;;;;;4.77;2.43;;;13.40;99.90;;;;;;5073111;28;20785;-76
2022/10/08 07:58:51;;;;;;;6.80;2.70;;;13.30;99.90;;;;;;5073080;28;20396;-75
2022/10/08 08:01:19;;;;;;;3.00;2.30;;;13.20;99.90;;;;;;5073107;28;20171;-74
2022/10/08 08:03:50;;;;;;;7.93;2.00;;;12.90;99.90;;;;;;5070486;28;20554;-65
2022/10/08 08:06:16;;;;;;;2.03;1.93;;;12.80;99.90;;;;;;5072048;28;20452;-74
2022/10/08 08:08:43;;;;;;;3.43;2.00;;;12.60;99.90;;;;;;5073027;28;20727;-74
2022/10/08 08:11:11;;;;;;;7.77;1.93;;;12.50;99.90;;;;;;5072971;28;20154;-73
2022/10/08 08:13:38;;;;;;;5.63;2.00;;;12.30;99.90;;;;;;5070909;28;20763;-72
2022/10/08 08:16:07;;;;;;;7.80;2.20;;;12.20;99.90;;;;;;5072791;28;20424;-73
2022/10/08 08:18:36;;;;;;;3.17;2.13;;;12.30;99.90;;;;;;5071727;28;20387;-71
2022/10/08 08:21:04;;;;;;;2.90;2.10;;;12.40;99.90;;;;;;5072580;28;20371;-73
2022/10/08 08:23:35;;;;;;;6.37;1.60;;;12.50;99.90;;;;;;5072578;28;20401;-72
2022/10/08 08:26:03;;;;;;;2.00;1.90;;;12.60;99.90;;;;;;5072317;28;20543;-73
2022/10/08 08:28:29;;;;;;;2.17;1.73;;;12.60;99.90;;;;;;5073053;28;20900;-66
2022/10/08 08:31:11;;;;;;;2.27;1.70;;;12.50;99.90;;;;;;5072676;28;20856;-67
2022/10/08 08:33:38;;;;;;;4.83;2.30;;;12.40;99.90;;;;;;5072085;28;20391;-73
2022/10/08 08:36:04;;;;;;;3.37;1.90;;;12.30;99.90;;;;;;5074167;28;20420;-72
2022/10/08 08:38:32;;;;;;;3.10;1.40;;;12.20;99.90;;;;;;5075122;28;20379;-72
2022/10/08 08:41:08;;;;;;;3.23;1.50;;;12.20;99.90;;;;;;5076415;28;20391;-73
2022/10/08 08:43:33;;;;;;;2.27;1.80;;;12.10;99.90;;;;;;5076135;28;20881;-73
2022/10/08 08:46:01;;;;;;;3.57;1.53;;;11.90;99.90;;;;;;5075633;28;20440;-72
2022/10/08 08:48:31;;;;;;;2.80;1.73;;;11.80;99.90;;;;;;5076334;28;20169;-70
2022/10/08 08:50:58;;;;;;;1.70;1.60;;;11.80;99.90;;;;;;5076235;28;20372;-69
2022/10/08 08:53:24;;;;;;;3.00;1.20;;;11.60;99.90;;;;;;5076189;28;20371;-67
2022/10/08 08:55:54;;;;;;;2.70;1.40;;;11.50;99.90;;;;;;5073662;28;20415;-74
2022/10/08 08:59:05;;;;;;;3.80;1.10;;;11.30;99.90;;;;;;5076039;28;20444;-75
2022/10/08 09:01:41;;;;;;;4.73;1.50;;;11.10;99.90;;;;;;5054797;28;20391;-70
2022/10/08 09:04:16;;;;;;;3.43;1.40;;;10.90;99.90;;;;;;5075070;28;20402;-72
2022/10/08 09:06:43;;;;;;;1.50;1.20;;;10.80;99.90;;;;;;5074518;28;20469;-74
2022/10/08 09:09:18;;;;;;;2.13;1.50;;;10.80;99.90;;;;;;5076119;28;20371;-73
2022/10/08 09:11:44;;;;;;;2.70;1.40;;;10.90;99.90;;;;;;5075771;28;20410;-69
2022/10/08 09:14:13;;;;;;;3.00;1.90;;;10.90;99.90;;;;;;5074549;28;20801;-73
2022/10/08 09:16:39;;;;;;;1.70;1.57;;;10.80;99.90;;;;;;5075875;28;20466;-74
2022/10/08 09:19:08;;;;;;;5.27;1.80;;;10.80;99.90;;;;;;5075610;28;20397;-74
2022/10/08 09:21:33;;;;;;;7.20;2.30;;;10.80;99.90;;;;;;5075598;28;20407;-69
2022/10/08 09:24:00;;;;;;;3.40;1.73;;;10.80;99.90;;;;;;5074736;28;20891;-73
2022/10/08 09:26:30;;;;;;;3.80;1.90;;;10.90;99.90;;;;;;5074058;28;20216;-74
2022/10/08 09:28:58;;;;;;;4.30;2.00;;;10.90;99.90;;;;;;5075112;28;20893;-73
2022/10/08 09:31:35;;;;;;;1.97;1.80;;;11.00;99.90;;;;;;5075354;28;20395;-73
2022/10/08 09:34:14;;;;;;;1.60;1.50;;;11.00;99.90;;;;;;5073330;28;20407;-67
2022/10/08 09:37:02;;;;;;;3.67;1.73;;;11.10;99.90;;;;;;5075179;28;20474;-66
2022/10/08 09:39:33;;;;;;;7.03;1.60;;;11.30;99.90;;;;;;5075377;28;20425;-71
2022/10/08 09:42:16;;;;;;;3.50;1.47;;;11.50;99.90;;;;;;5075402;28;20723;-66
2022/10/08 09:44:58;;;;;;;6.27;2.47;;;11.60;99.90;;;;;;5074305;28;20406;-71
2022/10/08 09:47:25;;;;;;;3.60;1.50;;;11.70;99.90;;;;;;5074257;28;20424;-70
2022/10/08 09:50:15;;;;;;;3.47;2.40;;;11.80;99.90;;;;;;5074972;28;20864;-72
2022/10/08 09:52:41;;;;;;;4.80;2.23;;;12.00;99.90;;;;;;5074991;28;20909;-71
2022/10/08 09:55:21;;;;;;;4.27;1.70;;;12.30;1.00;;;;;;5072903;28;20441;-69
2022/10/08 09:57:50;;;;;;;8.83;1.90;;;12.40;1.00;;;;;;5075039;28;20458;-65
2022/10/08 10:00:27;;;;;;;5.63;1.67;;;12.80;99.90;;;;;;5074870;28;20728;-72
2022/10/08 10:02:55;;;;;;;4.50;2.10;;;12.90;99.90;;;;;;5073410;28;20427;-66
2022/10/08 10:05:27;;;;;;;3.83;1.50;;;13.00;99.90;;;;;;5073948;28;20422;-65
2022/10/08 10:07:53;;;;;;;6.43;1.90;;;13.40;99.90;;;;;;5074363;28;20393;-72
2022/10/08 10:10:27;;;;;;;2.60;1.73;;;14.00;99.90;;;;;;5074627;28;20374;-72
2022/10/08 10:13:19;;;;;;;3.83;1.67;;;14.30;99.90;;;;;;5074536;28;20432;-71
2022/10/08 10:16:04;;;;;;;1.83;1.43;;;14.70;99.90;;;;;;5072633;28;20915;-71
2022/10/08 10:18:35;;;;;;;2.07;1.10;;;15.10;99.90;;;;;;5074466;28;20516;-70
2022/10/08 10:21:05;;;;;;;6.10;1.47;;;15.50;99.90;;;;;;5074340;28;20372;-65
2022/10/08 10:23:43;;;;;;;3.33;1.13;;;15.80;99.90;;;;;;5074291;28;20377;-65
2022/10/08 10:26:28;;;;;;;2.07;1.50;;;16.20;99.90;;;;;;5073694;28;20453;-74
2022/10/08 10:28:58;;;;;;;2.90;1.00;;;16.60;99.90;;;;;;5073083;28;20383;-71
2022/10/08 10:31:36;;;;;;;5.20;1.53;;;17.00;95.60;;;;;;5074192;28;20886;-71
2022/10/08 10:34:20;;;;;;;3.83;1.40;;;17.00;81.40;;;;;;5073586;28;20380;-72
2022/10/08 10:36:53;;;;;;;2.80;1.53;;;16.40;51.50;;;;;;5072885;28;20444;-71
2022/10/08 10:39:43;;;;;;;7.27;1.80;;;15.90;46.70;;;;;;5074254;28;20405;-64
2022/10/08 10:42:25;;;;;;;2.63;1.23;;;15.50;46.90;;;;;;5073156;28;20731;-66
2022/10/08 10:45:15;;;;;;;3.97;1.00;;;15.50;65.60;;;;;;5072698;28;20416;-74
2022/10/08 10:47:41;;;;;;;2.50;1.43;;;15.30;32.30;;;;;;5073984;28;20419;-70
2022/10/08 10:50:30;;;;;;;6.80;1.93;;;15.20;54.20;;;;;;5074136;28;20892;-72
2022/10/08 10:52:58;;;;;;;3.10;1.10;;;15.10;29.20;;;;;;5073893;28;20527;-70
2022/10/08 10:55:33;;;;;;;3.67;1.40;;;15.10;12.90;;;;;;5071998;28;20403;-70
2022/10/08 10:58:26;;;;;;;1.60;1.50;;;15.20;2.70;;;;;;5073573;28;20402;-71
2022/10/08 11:01:00;;;;;;;6.33;1.70;;;15.10;17.70;;;;;;5073513;28;20376;-65
2022/10/08 11:03:45;;;;;;;1.53;1.30;;;15.10;25.70;;;;;;5071864;28;20424;-69
2022/10/08 11:06:29;;;;;;;3.57;1.00;;;15.30;59.10;;;;;;5073548;28;20455;-69
2022/10/08 11:09:39;;;;;;;4.73;1.63;;;15.40;4.50;;;;;;5073606;28;20389;-65
2022/10/08 11:12:20;;;;;;;2.80;1.30;;;15.70;1.00;;;;;;5066071;28;20831;-70
2022/10/08 11:14:54;;;;;;;4.20;1.30;;;15.80;1.00;;;;;;5072844;28;20391;-68
2022/10/08 11:17:29;;;;;;;2.80;1.20;;;15.20;1.00;;;;;;5072134;28;20915;-68
2022/10/08 11:20:00;;;;;;;4.27;1.20;;;14.80;1.00;;;;;;5073598;28;20402;-68
2022/10/08 11:22:28;;;;;;;3.10;1.50;;;14.00;1.00;;;;;;5073545;28;20440;-69
2022/10/08 11:24:54;;;;;;;6.30;1.90;;;13.70;12.40;;;;;;5072371;28;20405;-68
2022/10/08 11:27:55;;;;;;;4.37;1.50;;;13.50;13.60;;;;;;5073296;28;20447;-67
2022/10/08 11:30:33;;;;;;;6.50;1.20;;;13.20;1.00;;;;;;5031277;28;20171;-72
2022/10/08 11:32:59;;;;;;;5.57;1.37;;;13.10;1.00;;;;;;5068315;28;20395;-71
2022/10/08 11:35:33;;;;;;;2.33;1.40;;;13.00;1.00;;;;;;5071466;28;20441;-68
2022/10/08 11:38:13;;;;;;;5.37;1.30;;;13.00;1.00;;;;;;5073486;28;20439;-68
2022/10/08 11:40:48;;;;;;;3.37;2.50;;;13.20;24.90;;;;;;5072984;28;20419;-67
2022/10/08 11:43:44;;;;;;;3.43;1.30;;;13.50;48.40;;;;;;5073349;28;20396;-70
2022/10/08 11:46:29;;;;;;;6.53;1.37;;;13.70;47.50;;;;;;5073234;28;20601;-70
2022/10/08 11:49:16;;;;;;;2.33;1.20;;;13.80;38.40;;;;;;5073325;28;20514;-67
2022/10/08 11:51:46;;;;;;;3.10;1.20;;;14.00;72.20;;;;;;5074036;28;20892;-68
2022/10/08 11:54:11;;;;;;;3.67;1.77;;;14.00;32.90;;;;;;5072786;28;20395;-68
2022/10/08 11:56:44;;;;;;;3.80;1.20;;;14.20;75.00;;;;;;5073178;28;20427;-67
2022/10/08 11:59:34;;;;;;;4.80;1.53;;;14.30;65.10;;;;;;5072730;28;20305;-68
2022/10/08 12:02:20;;;;;;;3.80;1.60;;;14.10;5.60;;;;;;5073078;28;20401;-69
2022/10/08 12:04:47;;;;;;;2.30;1.10;;;14.10;1.00;;;;;;5071063;28;20391;-68
2022/10/08 12:07:32;;;;;;;3.00;1.50;;;14.30;1.00;;;;;;5073038;28;20455;-66
2022/10/08 12:10:30;;;;;;;4.47;2.57;;;14.40;6.30;;;;;;5073391;28;20416;-66
2022/10/08 12:12:59;;;;;;;1.00;0.90;;;14.30;2.00;;;;;;5073876;28;20474;-68
2022/10/08 12:15:32;;;;;;;3.80;1.57;;;14.10;8.50;;;;;;5075783;28;20917;-72
2022/10/08 12:18:11;;;;;;;3.07;1.30;;;14.00;1.00;;;;;;5076471;28;20431;-66
2022/10/08 12:20:39;;;;;;;12.90;2.67;;;13.90;1.00;;;;;;5076760;28;20843;-66
2022/10/08 12:23:20;;;;;;;6.00;1.80;;;13.90;1.00;;;;;;5076612;28;20387;-68
2022/10/08 12:25:47;;;;;;;3.83;1.20;;;14.00;4.20;;;;;;5074782;28;20474;-68
2022/10/08 12:28:19;;;;;;;2.67;1.40;;;14.40;37.30;;;;;;5076454;28;20899;-67
2022/10/08 12:30:48;;;;;;;4.63;1.63;;;15.00;1.00;;;;;;5076542;28;20399;-67
2022/10/08 12:33:15;;;;;;;6.53;1.50;;;15.70;1.00;;;;;;5076183;28;20405;-67
2022/10/08 12:36:06;;;;;;;4.20;1.23;;;16.60;9.90;;;;;;5075834;28;20972;-68
2022/10/08 12:38:57;;;;;;;4.40;1.23;;;17.70;1.00;;;;;;5076455;28;20822;-68
2022/10/08 12:41:50;;;;;;;1.20;0.87;;;19.10;1.00;;;;;;5076340;28;20483;-71
2022/10/08 12:44:32;;;;;;;1.10;0.70;;;20.80;1.00;;;;;;5074655;28;20404;-69
2022/10/08 12:47:23;;;;;;;1.50;0.80;;;22.30;1.00;;;;;;5076054;28;20460;-69
2022/10/08 12:50:13;;;;;;;1.67;0.80;;;24.00;1.00;;;;;;5076231;28;20405;-69
2022/10/08 12:52:39;;;;;;;3.53;1.00;;;24.10;1.00;;;;;;5075895;28;20405;-68
2022/10/08 12:55:05;;;;;;;3.40;1.30;;;22.70;1.00;;;;;;5075167;28;20423;-65
2022/10/08 12:57:37;;;;;;;5.40;1.10;;;20.80;1.00;;;;;;5076029;28;20166;-65
2022/10/08 13:00:09;;;;;;;3.20;1.40;;;18.70;1.00;;;;;;5075953;28;20407;-68
2022/10/08 13:02:38;;;;;;;3.80;0.90;;;17.30;1.00;;;;;;5075681;28;20432;-68
2022/10/08 13:05:21;;;;;;;3.30;2.17;;;16.50;1.00;;;;;;5075195;28;20421;-65
2022/10/08 13:07:46;;;;;;;2.60;1.63;;;16.30;1.00;;;;;;5075758;28;20400;-69
2022/10/08 13:10:24;;;;;;;3.83;1.30;;;16.80;1.00;;;;;;5074736;28;20404;-68